DAL160 KSLC-KBZN
Flight info
| Callsign | DAL160 |
|---|---|
| Flight time | 0h 56m |
| Altitude | 38000 |
| Route | RUGGD3 HOLTR SABAT LOSST1 |
| Aircraft | B738/M-SDE2E3FGHIRWXY/LB1 |
Departure
| Time | 2026-04-24 03:07 |
|---|---|
| Airport | Salt Lake City International Airport (KSLC) |
Arrival
| Time | 2026-04-24 04:03 |
|---|---|
| Airport | Bozeman Yellowstone International Airport (KBZN) |
| Time | Latitude | Longitude | Altitude | Speed | Heading |
|---|---|---|---|---|---|
| 2026-04-24 02:48 | 40.78834 | -111.98712 | 4229 ft | 0 kts | 355° |
| 2026-04-24 02:58 | 40.78831 | -111.98711 | 4230 ft | 3 kts | 355° |
| 2026-04-24 02:58 | 40.78805 | -111.98711 | 4229 ft | 4 kts | 6° |
| 2026-04-24 02:58 | 40.78779 | -111.98718 | 4229 ft | 4 kts | 27° |
| 2026-04-24 02:58 | 40.78760 | -111.98739 | 4229 ft | 4 kts | 73° |
| 2026-04-24 02:59 | 40.78758 | -111.98748 | 4228 ft | 0 kts | 85° |
| 2026-04-24 03:01 | 40.78758 | -111.98747 | 4239 ft | 1 kts | 85° |
| 2026-04-24 03:01 | 40.78749 | -111.98725 | 4229 ft | 4 kts | 153° |
| 2026-04-24 03:01 | 40.78727 | -111.98751 | 4230 ft | 5 kts | 259° |
| 2026-04-24 03:01 | 40.78741 | -111.98831 | 4230 ft | 15 kts | 284° |
| 2026-04-24 03:02 | 40.78740 | -111.99001 | 4230 ft | 20 kts | 265° |
| 2026-04-24 03:02 | 40.78726 | -111.99183 | 4229 ft | 20 kts | 266° |
| 2026-04-24 03:02 | 40.78724 | -111.99348 | 4230 ft | 13 kts | 282° |
| 2026-04-24 03:02 | 40.78803 | -111.99385 | 4230 ft | 13 kts | 356° |
| 2026-04-24 03:03 | 40.78891 | -111.99395 | 4230 ft | 13 kts | 355° |
| 2026-04-24 03:03 | 40.78994 | -111.99406 | 4230 ft | 16 kts | 355° |
| 2026-04-24 03:03 | 40.79109 | -111.99421 | 4230 ft | 17 kts | 356° |
| 2026-04-24 03:03 | 40.79236 | -111.99435 | 4230 ft | 20 kts | 355° |
| 2026-04-24 03:04 | 40.79384 | -111.99453 | 4230 ft | 23 kts | 355° |
| 2026-04-24 03:04 | 40.79549 | -111.99472 | 4230 ft | 25 kts | 355° |
| 2026-04-24 03:04 | 40.79731 | -111.99493 | 4230 ft | 27 kts | 355° |
| 2026-04-24 03:04 | 40.79923 | -111.99514 | 4230 ft | 29 kts | 355° |
| 2026-04-24 03:05 | 40.80128 | -111.99537 | 4230 ft | 30 kts | 355° |
| 2026-04-24 03:05 | 40.80342 | -111.99564 | 4230 ft | 32 kts | 355° |
| 2026-04-24 03:05 | 40.80565 | -111.99590 | 4230 ft | 33 kts | 355° |
| 2026-04-24 03:05 | 40.80763 | -111.99617 | 4230 ft | 22 kts | 346° |
| 2026-04-24 03:06 | 40.80815 | -111.99745 | 4230 ft | 16 kts | 228° |
| 2026-04-24 03:06 | 40.80762 | -111.99866 | 4229 ft | 16 kts | 252° |
| 2026-04-24 03:06 | 40.80665 | -111.99917 | 4231 ft | 16 kts | 180° |
| 2026-04-24 03:06 | 40.80531 | -111.99906 | 4230 ft | 36 kts | 174° |
| 2026-04-24 03:07 | 40.80038 | -111.99846 | 4231 ft | 104 kts | 174° |
| 2026-04-24 03:07 | 40.79132 | -111.99738 | 4272 ft | 154 kts | 174° |
| 2026-04-24 03:07 | 40.77988 | -111.99610 | 4785 ft | 171 kts | 176° |
| 2026-04-24 03:07 | 40.76844 | -111.99944 | 5576 ft | 176 kts | 212° |
| 2026-04-24 03:08 | 40.76097 | -112.01165 | 6284 ft | 183 kts | 244° |
| 2026-04-24 03:08 | 40.76712 | -112.04822 | 6699 ft | 242 kts | 306° |
| 2026-04-24 03:08 | 40.77780 | -112.06664 | 7003 ft | 259 kts | 306° |
| 2026-04-24 03:09 | 40.78859 | -112.08531 | 7850 ft | 254 kts | 305° |
| 2026-04-24 03:09 | 40.79961 | -112.10421 | 8491 ft | 265 kts | 306° |
| 2026-04-24 03:09 | 40.81093 | -112.12361 | 9314 ft | 269 kts | 306° |
| 2026-04-24 03:09 | 40.82237 | -112.14323 | 10235 ft | 267 kts | 306° |
| 2026-04-24 03:10 | 40.83388 | -112.16300 | 10685 ft | 285 kts | 306° |
| 2026-04-24 03:10 | 40.84661 | -112.18442 | 11005 ft | 306 kts | 312° |
| 2026-04-24 03:10 | 40.86492 | -112.19948 | 11644 ft | 321 kts | 341° |
| 2026-04-24 03:10 | 40.88740 | -112.20116 | 12575 ft | 330 kts | 3° |
| 2026-04-24 03:11 | 40.90979 | -112.19284 | 13481 ft | 342 kts | 19° |
| 2026-04-24 03:11 | 40.93040 | -112.17596 | 14266 ft | 352 kts | 30° |
| 2026-04-24 03:11 | 40.95022 | -112.15626 | 14970 ft | 359 kts | 32° |
| 2026-04-24 03:11 | 40.97004 | -112.13567 | 15709 ft | 364 kts | 32° |
| 2026-04-24 03:12 | 40.99006 | -112.11475 | 16464 ft | 369 kts | 32° |
| 2026-04-24 03:12 | 41.01050 | -112.09356 | 17185 ft | 375 kts | 32° |
| 2026-04-24 03:12 | 41.03098 | -112.07252 | 17904 ft | 380 kts | 32° |
| 2026-04-24 03:12 | 41.05207 | -112.05100 | 18601 ft | 384 kts | 32° |
| 2026-04-24 03:13 | 41.07334 | -112.02939 | 19285 ft | 387 kts | 31° |
| 2026-04-24 03:13 | 41.09488 | -112.00754 | 19898 ft | 392 kts | 31° |
| 2026-04-24 03:13 | 41.11663 | -111.98551 | 20577 ft | 395 kts | 31° |
| 2026-04-24 03:13 | 41.13855 | -111.96329 | 21236 ft | 398 kts | 31° |
| 2026-04-24 03:14 | 41.16063 | -111.94090 | 21872 ft | 401 kts | 31° |
| 2026-04-24 03:14 | 41.18267 | -111.91853 | 22496 ft | 405 kts | 31° |
| 2026-04-24 03:14 | 41.20508 | -111.89566 | 23144 ft | 409 kts | 31° |
| 2026-04-24 03:14 | 41.22780 | -111.87264 | 23725 ft | 413 kts | 31° |
| 2026-04-24 03:15 | 41.25079 | -111.84923 | 24222 ft | 416 kts | 31° |
| 2026-04-24 03:15 | 41.27383 | -111.82575 | 24740 ft | 418 kts | 31° |
| 2026-04-24 03:15 | 41.29698 | -111.80211 | 25227 ft | 421 kts | 31° |
| 2026-04-24 03:15 | 41.32037 | -111.77826 | 25689 ft | 426 kts | 30° |
| 2026-04-24 03:16 | 41.34405 | -111.75413 | 26064 ft | 431 kts | 31° |
| 2026-04-24 03:16 | 41.36801 | -111.72970 | 26551 ft | 433 kts | 29° |
| 2026-04-24 03:16 | 41.39339 | -111.70883 | 27040 ft | 426 kts | 20° |
| 2026-04-24 03:16 | 41.42055 | -111.69393 | 27502 ft | 419 kts | 11° |
| 2026-04-24 03:17 | 41.44857 | -111.68298 | 27915 ft | 421 kts | 9° |
| 2026-04-24 03:17 | 41.47686 | -111.67237 | 28339 ft | 424 kts | 9° |
| 2026-04-24 03:17 | 41.50533 | -111.66167 | 28787 ft | 426 kts | 9° |
| 2026-04-24 03:17 | 41.53356 | -111.65090 | 29190 ft | 429 kts | 10° |
| 2026-04-24 03:18 | 41.56231 | -111.63980 | 29671 ft | 430 kts | 10° |
| 2026-04-24 03:18 | 41.59106 | -111.62855 | 30198 ft | 429 kts | 10° |
| 2026-04-24 03:18 | 41.61984 | -111.61723 | 30537 ft | 432 kts | 10° |
| 2026-04-24 03:18 | 41.64887 | -111.60579 | 30786 ft | 436 kts | 10° |
| 2026-04-24 03:19 | 41.67810 | -111.59427 | 31042 ft | 440 kts | 10° |
| 2026-04-24 03:19 | 41.70762 | -111.58261 | 31326 ft | 443 kts | 11° |
| 2026-04-24 03:19 | 41.73716 | -111.57093 | 31682 ft | 443 kts | 11° |
| 2026-04-24 03:19 | 41.76675 | -111.55923 | 32071 ft | 443 kts | 11° |
| 2026-04-24 03:20 | 41.79628 | -111.54766 | 32565 ft | 440 kts | 9° |
| 2026-04-24 03:20 | 41.82563 | -111.53881 | 32877 ft | 438 kts | 5° |
| 2026-04-24 03:20 | 41.85573 | -111.53185 | 33174 ft | 439 kts | 3° |
| 2026-04-24 03:20 | 41.88598 | -111.52569 | 33508 ft | 440 kts | 3° |
| 2026-04-24 03:21 | 41.91622 | -111.51959 | 33895 ft | 439 kts | 3° |
| 2026-04-24 03:21 | 41.94644 | -111.51329 | 34199 ft | 440 kts | 3° |
| 2026-04-24 03:21 | 41.97673 | -111.50670 | 34549 ft | 438 kts | 3° |
| 2026-04-24 03:21 | 42.00644 | -111.50001 | 35228 ft | 429 kts | 3° |
| 2026-04-24 03:22 | 42.03601 | -111.49331 | 35398 ft | 432 kts | 3° |
| 2026-04-24 03:22 | 42.06580 | -111.48655 | 35517 ft | 436 kts | 4° |
| 2026-04-24 03:22 | 42.09587 | -111.47971 | 35670 ft | 440 kts | 4° |
| 2026-04-24 03:22 | 42.12616 | -111.47280 | 35913 ft | 440 kts | 4° |
| 2026-04-24 03:23 | 42.15597 | -111.46598 | 36176 ft | 441 kts | 4° |
| 2026-04-24 03:23 | 42.18624 | -111.45905 | 36473 ft | 441 kts | 4° |
| 2026-04-24 03:23 | 42.21686 | -111.45204 | 36762 ft | 441 kts | 4° |
| 2026-04-24 03:23 | 42.24686 | -111.44519 | 36925 ft | 443 kts | 4° |
| 2026-04-24 03:24 | 42.27735 | -111.43823 | 37101 ft | 445 kts | 4° |
| 2026-04-24 03:24 | 42.30802 | -111.43408 | 37306 ft | 441 kts | 355° |
| 2026-04-24 03:24 | 42.33843 | -111.43636 | 37539 ft | 437 kts | 349° |
| 2026-04-24 03:24 | 42.36871 | -111.44048 | 37732 ft | 438 kts | 349° |
| 2026-04-24 03:25 | 42.39897 | -111.44490 | 37981 ft | 434 kts | 349° |
| 2026-04-24 03:25 | 42.45918 | -111.45362 | 37949 ft | 435 kts | 349° |
| 2026-04-24 03:26 | 42.51907 | -111.46187 | 37957 ft | 436 kts | 349° |
| 2026-04-24 03:26 | 42.57952 | -111.46996 | 37993 ft | 436 kts | 349° |
| 2026-04-24 03:27 | 42.64008 | -111.47799 | 37958 ft | 436 kts | 349° |
| 2026-04-24 03:27 | 42.70043 | -111.48600 | 37951 ft | 434 kts | 349° |
| 2026-04-24 03:28 | 42.76044 | -111.49399 | 37954 ft | 431 kts | 349° |
| 2026-04-24 03:28 | 42.81966 | -111.50190 | 37961 ft | 429 kts | 349° |
| 2026-04-24 03:29 | 42.87901 | -111.50985 | 37958 ft | 427 kts | 349° |
| 2026-04-24 03:29 | 42.93812 | -111.51778 | 37989 ft | 426 kts | 349° |
| 2026-04-24 03:30 | 42.99702 | -111.52571 | 37976 ft | 425 kts | 349° |
| 2026-04-24 03:30 | 43.04598 | -111.53231 | 37970 ft | 425 kts | 349° |
| 2026-04-24 03:31 | 43.10489 | -111.54027 | 37985 ft | 426 kts | 349° |
| 2026-04-24 03:31 | 43.16401 | -111.54827 | 38002 ft | 427 kts | 349° |
| 2026-04-24 03:32 | 43.22310 | -111.55627 | 37998 ft | 427 kts | 349° |
| 2026-04-24 03:32 | 43.28203 | -111.56427 | 38006 ft | 428 kts | 349° |
| 2026-04-24 03:33 | 43.34140 | -111.57234 | 38027 ft | 429 kts | 349° |
| 2026-04-24 03:33 | 43.40088 | -111.58044 | 38028 ft | 428 kts | 349° |
| 2026-04-24 03:34 | 43.46005 | -111.58851 | 38028 ft | 427 kts | 349° |
| 2026-04-24 03:34 | 43.51904 | -111.59658 | 38041 ft | 425 kts | 348° |
| 2026-04-24 03:35 | 43.57741 | -111.60457 | 38020 ft | 422 kts | 348° |
| 2026-04-24 03:35 | 43.63570 | -111.61257 | 37998 ft | 420 kts | 348° |
| 2026-04-24 03:36 | 43.68784 | -111.61974 | 38005 ft | 419 kts | 348° |
| 2026-04-24 03:36 | 43.74597 | -111.62776 | 37988 ft | 419 kts | 348° |
| 2026-04-24 03:37 | 43.80399 | -111.63578 | 37991 ft | 419 kts | 348° |
| 2026-04-24 03:37 | 43.83305 | -111.63981 | 37793 ft | 422 kts | 348° |
| 2026-04-24 03:37 | 43.86212 | -111.64385 | 37336 ft | 423 kts | 348° |
| 2026-04-24 03:37 | 43.89134 | -111.64788 | 36800 ft | 420 kts | 347° |
| 2026-04-24 03:38 | 43.92045 | -111.65190 | 36260 ft | 418 kts | 347° |
| 2026-04-24 03:38 | 43.94921 | -111.65588 | 35873 ft | 413 kts | 347° |
| 2026-04-24 03:38 | 43.97780 | -111.65959 | 35435 ft | 412 kts | 349° |
| 2026-04-24 03:38 | 44.00668 | -111.65817 | 34999 ft | 419 kts | 359° |
| 2026-04-24 03:39 | 44.03555 | -111.65077 | 34545 ft | 425 kts | 6° |
| 2026-04-24 03:39 | 44.06381 | -111.63736 | 34109 ft | 433 kts | 14° |
| 2026-04-24 03:39 | 44.09133 | -111.62040 | 33648 ft | 432 kts | 15° |
| 2026-04-24 03:39 | 44.11820 | -111.60313 | 33253 ft | 429 kts | 15° |
| 2026-04-24 03:40 | 44.14510 | -111.58566 | 32802 ft | 425 kts | 15° |
| 2026-04-24 03:40 | 44.17177 | -111.56841 | 32380 ft | 421 kts | 14° |
| 2026-04-24 03:40 | 44.19822 | -111.55143 | 31985 ft | 416 kts | 14° |
| 2026-04-24 03:40 | 44.22445 | -111.53470 | 31603 ft | 412 kts | 13° |
| 2026-04-24 03:41 | 44.25040 | -111.51823 | 31206 ft | 407 kts | 13° |
| 2026-04-24 03:41 | 44.27607 | -111.50198 | 30836 ft | 403 kts | 13° |
| 2026-04-24 03:41 | 44.30147 | -111.48592 | 30460 ft | 398 kts | 12° |
| 2026-04-24 03:41 | 44.32660 | -111.47003 | 30098 ft | 395 kts | 13° |
| 2026-04-24 03:42 | 44.35155 | -111.45425 | 29656 ft | 391 kts | 13° |
| 2026-04-24 03:42 | 44.37622 | -111.43861 | 29274 ft | 386 kts | 12° |
| 2026-04-24 03:42 | 44.40054 | -111.42317 | 28903 ft | 381 kts | 13° |
| 2026-04-24 03:42 | 44.42461 | -111.40790 | 28469 ft | 378 kts | 13° |
| 2026-04-24 03:43 | 44.44842 | -111.39278 | 28097 ft | 374 kts | 12° |
| 2026-04-24 03:43 | 44.47202 | -111.37777 | 27697 ft | 371 kts | 12° |
| 2026-04-24 03:43 | 44.49512 | -111.36307 | 27324 ft | 368 kts | 12° |
| 2026-04-24 03:43 | 44.51830 | -111.34831 | 26935 ft | 365 kts | 12° |
| 2026-04-24 03:44 | 44.54134 | -111.33364 | 26612 ft | 362 kts | 13° |
| 2026-04-24 03:44 | 44.56420 | -111.31906 | 26232 ft | 359 kts | 13° |
| 2026-04-24 03:44 | 44.58701 | -111.30450 | 25854 ft | 357 kts | 13° |
| 2026-04-24 03:44 | 44.60955 | -111.29010 | 25485 ft | 355 kts | 13° |
| 2026-04-24 03:45 | 44.63204 | -111.27571 | 25114 ft | 354 kts | 13° |
| 2026-04-24 03:45 | 44.65414 | -111.26157 | 24756 ft | 353 kts | 13° |
| 2026-04-24 03:45 | 44.67640 | -111.24732 | 24414 ft | 351 kts | 14° |
| 2026-04-24 03:45 | 44.69863 | -111.23306 | 24029 ft | 351 kts | 14° |
| 2026-04-24 03:46 | 44.72085 | -111.21879 | 23677 ft | 350 kts | 15° |
| 2026-04-24 03:46 | 44.74301 | -111.20456 | 23254 ft | 349 kts | 15° |
| 2026-04-24 03:46 | 44.76508 | -111.19037 | 22857 ft | 348 kts | 15° |
| 2026-04-24 03:46 | 44.78703 | -111.17623 | 22483 ft | 345 kts | 15° |
| 2026-04-24 03:47 | 44.80873 | -111.16224 | 22137 ft | 342 kts | 15° |
| 2026-04-24 03:47 | 44.83038 | -111.14827 | 21788 ft | 339 kts | 16° |
| 2026-04-24 03:47 | 44.85175 | -111.13447 | 21442 ft | 337 kts | 16° |
| 2026-04-24 03:47 | 44.87300 | -111.12075 | 21099 ft | 335 kts | 16° |
| 2026-04-24 03:48 | 44.89388 | -111.10725 | 20760 ft | 333 kts | 17° |
| 2026-04-24 03:48 | 44.91489 | -111.09366 | 20404 ft | 331 kts | 17° |
| 2026-04-24 03:48 | 44.93569 | -111.08019 | 20085 ft | 329 kts | 17° |
| 2026-04-24 03:48 | 44.95646 | -111.06674 | 19738 ft | 327 kts | 17° |
| 2026-04-24 03:49 | 44.97710 | -111.05337 | 19417 ft | 326 kts | 18° |
| 2026-04-24 03:49 | 44.99772 | -111.03998 | 19088 ft | 324 kts | 19° |
| 2026-04-24 03:49 | 45.01813 | -111.02673 | 18776 ft | 322 kts | 19° |
| 2026-04-24 03:49 | 45.03846 | -111.01350 | 18438 ft | 320 kts | 20° |
| 2026-04-24 03:50 | 45.05863 | -111.00038 | 18077 ft | 318 kts | 20° |
| 2026-04-24 03:50 | 45.07867 | -110.98732 | 17701 ft | 316 kts | 20° |
| 2026-04-24 03:50 | 45.09863 | -110.97433 | 17356 ft | 314 kts | 20° |
| 2026-04-24 03:50 | 45.11866 | -110.96276 | 17059 ft | 305 kts | 7° |
| 2026-04-24 03:51 | 45.13908 | -110.96219 | 16859 ft | 289 kts | 344° |
| 2026-04-24 03:51 | 45.15751 | -110.97163 | 16540 ft | 284 kts | 327° |
| 2026-04-24 03:51 | 45.17436 | -110.98628 | 16255 ft | 286 kts | 324° |
| 2026-04-24 03:51 | 45.19109 | -111.00170 | 15954 ft | 288 kts | 324° |
| 2026-04-24 03:52 | 45.20795 | -111.01733 | 15658 ft | 290 kts | 324° |
| 2026-04-24 03:52 | 45.22489 | -111.03295 | 15340 ft | 291 kts | 324° |
| 2026-04-24 03:52 | 45.24187 | -111.04853 | 15047 ft | 291 kts | 324° |
| 2026-04-24 03:52 | 45.25894 | -111.06411 | 14739 ft | 292 kts | 325° |
| 2026-04-24 03:53 | 45.27604 | -111.07969 | 14433 ft | 290 kts | 325° |
| 2026-04-24 03:53 | 45.29292 | -111.09507 | 14132 ft | 286 kts | 325° |
| 2026-04-24 03:53 | 45.30953 | -111.11033 | 13821 ft | 282 kts | 325° |
| 2026-04-24 03:53 | 45.32592 | -111.12528 | 13517 ft | 279 kts | 326° |
| 2026-04-24 03:54 | 45.34229 | -111.14009 | 13195 ft | 279 kts | 326° |
| 2026-04-24 03:54 | 45.35861 | -111.15491 | 12893 ft | 278 kts | 326° |
| 2026-04-24 03:54 | 45.37480 | -111.16969 | 12619 ft | 275 kts | 326° |
| 2026-04-24 03:54 | 45.39071 | -111.18419 | 12471 ft | 265 kts | 326° |
| 2026-04-24 03:55 | 45.40673 | -111.19535 | 12377 ft | 251 kts | 346° |
| 2026-04-24 03:55 | 45.42356 | -111.19661 | 12222 ft | 235 kts | 5° |
| 2026-04-24 03:55 | 45.43889 | -111.19116 | 12096 ft | 220 kts | 13° |
| 2026-04-24 03:55 | 45.45336 | -111.18491 | 11584 ft | 221 kts | 13° |
| 2026-04-24 03:56 | 45.46778 | -111.17877 | 11285 ft | 213 kts | 13° |
| 2026-04-24 03:56 | 45.48172 | -111.17280 | 11099 ft | 206 kts | 12° |
| 2026-04-24 03:56 | 45.49524 | -111.16716 | 10884 ft | 204 kts | 14° |
| 2026-04-24 03:56 | 45.50880 | -111.16151 | 10703 ft | 202 kts | 12° |
| 2026-04-24 03:57 | 45.52242 | -111.15496 | 10366 ft | 208 kts | 18° |
| 2026-04-24 03:57 | 45.53577 | -111.14763 | 10041 ft | 203 kts | 18° |
| 2026-04-24 03:57 | 45.54887 | -111.14040 | 9574 ft | 203 kts | 18° |
| 2026-04-24 03:57 | 45.56171 | -111.13336 | 9310 ft | 193 kts | 19° |
| 2026-04-24 03:58 | 45.57410 | -111.12656 | 9051 ft | 189 kts | 19° |
| 2026-04-24 03:58 | 45.58617 | -111.11995 | 8761 ft | 183 kts | 19° |
| 2026-04-24 03:58 | 45.59785 | -111.11357 | 8497 ft | 176 kts | 19° |
| 2026-04-24 03:58 | 45.60900 | -111.10748 | 8251 ft | 169 kts | 18° |
| 2026-04-24 03:59 | 45.61994 | -111.10152 | 8022 ft | 168 kts | 17° |
| 2026-04-24 03:59 | 45.63084 | -111.09557 | 7782 ft | 168 kts | 18° |
| 2026-04-24 03:59 | 45.64159 | -111.08970 | 7562 ft | 168 kts | 19° |
| 2026-04-24 03:59 | 45.65250 | -111.08373 | 7333 ft | 167 kts | 19° |
| 2026-04-24 04:00 | 45.66331 | -111.07782 | 7064 ft | 166 kts | 19° |
| 2026-04-24 04:00 | 45.67400 | -111.07198 | 6869 ft | 160 kts | 19° |
| 2026-04-24 04:00 | 45.68444 | -111.06630 | 6557 ft | 160 kts | 19° |
| 2026-04-24 04:00 | 45.69523 | -111.06291 | 6288 ft | 157 kts | 2° |
| 2026-04-24 04:01 | 45.70589 | -111.06427 | 6120 ft | 153 kts | 345° |
| 2026-04-24 04:01 | 45.71578 | -111.06950 | 5958 ft | 151 kts | 329° |
| 2026-04-24 04:01 | 45.72420 | -111.07840 | 5788 ft | 151 kts | 319° |
| 2026-04-24 04:01 | 45.73199 | -111.08850 | 5622 ft | 150 kts | 316° |
| 2026-04-24 04:02 | 45.73950 | -111.09890 | 5405 ft | 149 kts | 315° |
| 2026-04-24 04:02 | 45.74681 | -111.10910 | 5184 ft | 147 kts | 315° |
| 2026-04-24 04:02 | 45.75409 | -111.11936 | 4978 ft | 146 kts | 315° |
| 2026-04-24 04:02 | 45.76145 | -111.12959 | 4765 ft | 147 kts | 316° |
| 2026-04-24 04:03 | 45.76880 | -111.13967 | 4546 ft | 146 kts | 316° |
| 2026-04-24 04:03 | 45.77576 | -111.14933 | 4481 ft | 122 kts | 316° |
| 2026-04-24 04:03 | 45.78028 | -111.15559 | 4483 ft | 59 kts | 316° |
| 2026-04-24 04:03 | 45.78243 | -111.15858 | 4481 ft | 25 kts | 315° |
| 2026-04-24 04:04 | 45.78290 | -111.16015 | 4483 ft | 18 kts | 230° |
| 2026-04-24 04:04 | 45.78202 | -111.16142 | 4484 ft | 18 kts | 221° |
| 2026-04-24 04:04 | 45.78134 | -111.16118 | 4482 ft | 10 kts | 137° |
| 2026-04-24 04:04 | 45.78083 | -111.16051 | 4480 ft | 10 kts | 137° |
| 2026-04-24 04:05 | 45.78025 | -111.16054 | 4482 ft | 10 kts | 228° |
| 2026-04-24 04:05 | 45.77971 | -111.16029 | 4480 ft | 10 kts | 127° |
| 2026-04-24 04:05 | 45.77921 | -111.15966 | 4483 ft | 9 kts | 140° |
| 2026-04-24 04:05 | 45.77891 | -111.15952 | 4480 ft | 4 kts | 211° |
| 2026-04-24 04:06 | 45.77870 | -111.15982 | 4483 ft | 4 kts | 226° |
| 2026-04-24 04:06 | 45.77859 | -111.15998 | 4480 ft | 1 kts | 226° |
| 2026-04-24 04:06 | 45.77856 | -111.16003 | 4482 ft | 1 kts | 226° |
| 2026-04-24 04:06 | 45.77853 | -111.16006 | 4484 ft | 0 kts | 226° |
| 2026-04-24 04:07 | 45.77853 | -111.16007 | 4483 ft | 0 kts | 226° |